createdAt,value
2018-10-01T00:00:17.790Z,5.03
2018-10-01T00:03:20.982Z,4.87
2018-10-01T00:06:24.050Z,5.00
2018-10-01T00:09:27.160Z,4.47
2018-10-01T00:12:30.283Z,4.20
2018-10-01T00:15:33.386Z,4.07
2018-10-01T00:18:36.666Z,4.40
2018-10-01T00:21:45.295Z,3.90
2018-10-01T00:24:48.394Z,4.10
2018-10-01T00:27:51.507Z,3.80
2018-10-01T00:30:54.636Z,3.37
2018-10-01T00:33:57.714Z,4.47
2018-10-01T00:37:00.855Z,3.63
2018-10-01T00:40:03.990Z,3.93
2018-10-01T00:43:07.158Z,4.13
2018-10-01T00:46:10.276Z,3.90
2018-10-01T00:49:13.424Z,4.47
2018-10-01T00:52:16.565Z,4.13
2018-10-01T00:55:19.738Z,4.10
2018-10-01T00:58:22.862Z,4.30
2018-10-01T01:01:25.955Z,4.03
2018-10-01T01:04:29.107Z,4.47
2018-10-01T01:07:32.226Z,4.10
2018-10-01T01:10:35.330Z,4.33
2018-10-01T01:13:38.446Z,4.70
2018-10-01T01:16:41.574Z,4.47
2018-10-01T01:19:44.671Z,4.20
2018-10-01T01:22:47.802Z,3.67
2018-10-01T01:25:50.882Z,4.53
2018-10-01T01:28:54.042Z,4.50
2018-10-01T01:31:57.122Z,4.43
2018-10-01T01:35:00.235Z,4.17
2018-10-01T01:38:03.381Z,4.43
2018-10-01T01:41:06.752Z,4.30
2018-10-01T01:44:09.878Z,4.70
2018-10-01T01:47:12.951Z,4.50
2018-10-01T01:50:16.070Z,4.80
2018-10-01T01:53:19.262Z,5.33
2018-10-01T01:56:22.366Z,5.03
2018-10-01T01:59:25.508Z,4.83
2018-10-01T02:02:28.599Z,4.87
2018-10-01T02:05:31.742Z,4.93
2018-10-01T02:08:34.999Z,4.40
2018-10-01T02:11:38.117Z,5.30
2018-10-01T02:14:41.268Z,5.60
2018-10-01T02:17:44.363Z,5.90
2018-10-01T02:20:47.462Z,5.30
2018-10-01T02:23:50.550Z,6.30
2018-10-01T02:26:53.706Z,5.27
2018-10-01T02:29:56.839Z,5.63
2018-10-01T02:32:59.951Z,5.87
2018-10-01T02:36:03.070Z,6.97
2018-10-01T02:39:09.005Z,4.93
2018-10-01T02:42:12.112Z,6.00
2018-10-01T02:45:15.215Z,6.13
2018-10-01T02:48:18.349Z,6.10
2018-10-01T02:51:21.452Z,5.63
2018-10-01T02:54:31.320Z,5.83
2018-10-01T02:57:34.431Z,5.60
2018-10-01T03:00:37.562Z,6.00
2018-10-01T03:03:40.665Z,5.60
2018-10-01T03:06:43.778Z,5.87
2018-10-01T03:09:46.950Z,6.37
2018-10-01T03:12:50.056Z,5.60
2018-10-01T03:15:53.183Z,6.97
2018-10-01T03:18:56.313Z,6.00
2018-10-01T03:21:59.436Z,5.40
2018-10-01T03:25:02.591Z,5.07
2018-10-01T03:28:05.678Z,4.80
2018-10-01T03:31:08.816Z,5.30
2018-10-01T03:34:11.944Z,5.27
2018-10-01T03:37:15.065Z,7.00
2018-10-01T03:40:18.257Z,8.03
2018-10-01T03:43:39.595Z,7.83
2018-10-01T03:46:42.815Z,7.80
2018-10-01T03:49:45.935Z,8.63
2018-10-01T03:52:49.098Z,7.00
2018-10-01T03:55:52.195Z,8.57
2018-10-01T03:58:55.299Z,7.97
2018-10-01T04:01:58.406Z,8.47
2018-10-01T04:05:01.517Z,9.87
2018-10-01T04:08:04.669Z,11.53
2018-10-01T04:11:07.779Z,11.60
2018-10-01T04:14:10.906Z,10.07
2018-10-01T04:17:14.039Z,11.30
2018-10-01T04:20:17.203Z,11.67
2018-10-01T04:23:20.301Z,11.60
2018-10-01T04:26:23.421Z,12.60
2018-10-01T04:29:26.513Z,12.13
2018-10-01T04:32:29.794Z,11.10
2018-10-01T04:35:32.931Z,12.50
2018-10-01T04:38:36.186Z,13.07
2018-10-01T04:41:39.772Z,12.37
2018-10-01T04:44:42.906Z,12.20
2018-10-01T04:47:46.058Z,13.03
2018-10-01T04:50:49.182Z,12.13
2018-10-01T04:53:52.286Z,12.87
2018-10-01T04:56:55.468Z,12.80
2018-10-01T04:59:58.595Z,13.53
2018-10-01T05:03:01.719Z,15.57
2018-10-01T05:06:04.886Z,14.93
2018-10-01T05:09:08.782Z,15.13
2018-10-01T05:12:11.895Z,15.67
2018-10-01T05:15:15.058Z,15.33
2018-10-01T05:18:18.182Z,15.13
2018-10-01T05:21:21.299Z,15.20
2018-10-01T05:24:24.426Z,14.67
2018-10-01T05:27:27.568Z,16.83
2018-10-01T05:30:30.703Z,19.67
2018-10-01T05:33:33.810Z,15.37
2018-10-01T05:36:36.960Z,16.03
2018-10-01T05:39:40.126Z,17.20
2018-10-01T05:42:43.251Z,16.90
2018-10-01T05:45:46.947Z,18.33
2018-10-01T05:48:50.090Z,15.97
2018-10-01T05:51:53.210Z,16.80
2018-10-01T05:54:56.546Z,17.10
2018-10-01T05:57:59.685Z,16.80
2018-10-01T06:01:02.785Z,17.37
2018-10-01T06:04:05.915Z,21.67
2018-10-01T06:07:09.159Z,22.20
2018-10-01T06:10:12.330Z,18.20
2018-10-01T06:13:15.445Z,20.23
2018-10-01T06:16:18.582Z,20.23
2018-10-01T06:19:21.689Z,19.87
2018-10-01T06:22:24.819Z,20.53
2018-10-01T06:25:27.943Z,21.13
2018-10-01T06:28:31.046Z,23.07
2018-10-01T06:31:34.171Z,20.13
2018-10-01T06:34:37.306Z,21.13
2018-10-01T06:37:41.510Z,20.03
2018-10-01T06:40:44.686Z,20.13
2018-10-01T06:43:48.803Z,19.93
2018-10-01T06:46:51.942Z,27.27
2018-10-01T06:49:55.047Z,22.17
2018-10-01T06:52:58.176Z,20.13
2018-10-01T06:56:01.303Z,19.53
2018-10-01T06:59:04.394Z,19.90
2018-10-01T07:02:07.551Z,20.10
2018-10-01T07:05:10.675Z,19.63
2018-10-01T07:08:13.868Z,21.63
2018-10-01T07:11:17.087Z,21.00
2018-10-01T07:14:20.155Z,20.73
2018-10-01T07:17:23.591Z,21.57
2018-10-01T07:20:26.507Z,18.33
2018-10-01T07:23:40.137Z,19.57
2018-10-01T07:26:43.254Z,19.97
2018-10-01T07:29:46.366Z,19.57
2018-10-01T07:32:49.482Z,18.40
2018-10-01T07:35:52.654Z,18.63
2018-10-01T07:38:55.765Z,18.20
2018-10-01T07:41:58.941Z,18.47
2018-10-01T07:45:02.142Z,18.10
2018-10-01T07:48:05.243Z,17.27
2018-10-01T07:51:12.870Z,17.00
2018-10-01T07:54:16.043Z,16.13
2018-10-01T07:57:19.276Z,16.97
2018-10-01T08:00:22.468Z,14.87
2018-10-01T08:03:25.528Z,14.63
2018-10-01T08:06:28.702Z,13.97
2018-10-01T08:09:32.021Z,13.47
2018-10-01T08:12:35.048Z,13.17
2018-10-01T08:15:38.185Z,12.50
2018-10-01T08:18:41.337Z,13.47
2018-10-01T08:21:44.474Z,12.60
2018-10-01T08:24:47.604Z,11.47
2018-10-01T08:27:50.739Z,11.70
2018-10-01T08:30:53.856Z,12.03
2018-10-01T08:33:57.011Z,11.27
2018-10-01T08:37:00.166Z,11.23
2018-10-01T08:40:03.307Z,10.20
2018-10-01T08:43:06.422Z,9.83
2018-10-01T08:46:09.603Z,11.20
2018-10-01T08:49:18.042Z,9.50
2018-10-01T08:52:26.566Z,9.03
2018-10-01T08:55:29.826Z,9.37
2018-10-01T08:58:33.003Z,8.83
2018-10-01T09:01:36.102Z,9.37
2018-10-01T09:04:39.222Z,9.07
2018-10-01T09:07:54.131Z,9.17
2018-10-01T09:10:57.254Z,9.00
2018-10-01T09:14:00.443Z,8.40
2018-10-01T09:17:03.692Z,7.93
2018-10-01T09:20:07.165Z,7.60
2018-10-01T09:23:10.349Z,7.47
2018-10-01T09:26:13.515Z,6.47
2018-10-01T09:29:16.687Z,6.20
2018-10-01T09:32:19.793Z,6.20
2018-10-01T09:35:22.935Z,5.63
2018-10-01T09:38:26.181Z,5.67
2018-10-01T09:41:29.252Z,5.33
2018-10-01T09:44:32.477Z,7.53
2018-10-01T09:47:35.540Z,5.30
2018-10-01T09:50:38.695Z,4.80
2018-10-01T09:53:41.896Z,5.10
2018-10-01T09:56:44.988Z,5.43
2018-10-01T09:59:48.114Z,4.30
2018-10-01T10:02:51.263Z,4.80
2018-10-01T10:05:54.477Z,4.63
2018-10-01T10:08:57.617Z,4.53
2018-10-01T10:12:00.741Z,4.57
2018-10-01T10:15:03.894Z,4.27
2018-10-01T10:18:07.034Z,4.57
2018-10-01T10:21:10.118Z,3.23
2018-10-01T10:24:13.268Z,3.97
2018-10-01T10:27:16.461Z,3.10
2018-10-01T10:30:19.611Z,4.13
2018-10-01T10:33:22.871Z,3.00
2018-10-01T10:36:26.386Z,3.23
2018-10-01T10:39:32.937Z,2.77
2018-10-01T10:42:41.216Z,2.60
2018-10-01T10:45:44.413Z,2.23
2018-10-01T10:48:47.542Z,2.30
2018-10-01T10:51:50.671Z,2.50
2018-10-01T10:54:53.794Z,2.43
2018-10-01T10:57:57.060Z,2.50
2018-10-01T11:01:00.180Z,2.67
2018-10-01T11:04:03.286Z,2.77
2018-10-01T11:07:06.498Z,1.80
2018-10-01T11:10:09.574Z,1.87
2018-10-01T11:13:12.675Z,2.27
2018-10-01T11:16:16.147Z,2.10
2018-10-01T11:19:19.427Z,1.80
2018-10-01T11:22:22.417Z,2.10
2018-10-01T11:25:25.671Z,1.93
2018-10-01T11:28:28.668Z,1.60
2018-10-01T11:31:31.758Z,1.87
2018-10-01T11:34:35.044Z,1.53
2018-10-01T11:37:38.106Z,1.53
2018-10-01T11:40:41.227Z,1.50
2018-10-01T11:43:44.339Z,1.60
2018-10-01T11:46:47.656Z,1.43
2018-10-01T11:49:50.803Z,1.60
2018-10-01T11:52:53.898Z,1.80
2018-10-01T11:55:56.994Z,1.70
2018-10-01T11:59:00.114Z,2.00
2018-10-01T12:02:03.224Z,1.30
2018-10-01T12:05:07.148Z,1.70
2018-10-01T12:08:10.254Z,1.53
2018-10-01T12:11:13.634Z,1.90
2018-10-01T12:14:16.762Z,1.80
2018-10-01T12:17:19.887Z,1.30
2018-10-01T12:20:23.018Z,1.43
2018-10-01T12:23:26.176Z,2.07
2018-10-01T12:26:29.290Z,2.07
2018-10-01T12:29:32.431Z,1.23
2018-10-01T12:32:35.551Z,1.27
2018-10-01T12:35:38.771Z,1.97
2018-10-01T12:38:41.858Z,1.60
2018-10-01T12:41:45.007Z,1.67
2018-10-01T12:44:48.111Z,1.47
2018-10-01T12:47:51.259Z,1.77
2018-10-01T12:50:54.652Z,1.67
2018-10-01T12:53:57.797Z,1.53
2018-10-01T12:57:00.998Z,1.80
2018-10-01T13:00:04.196Z,2.07
2018-10-01T13:03:07.387Z,1.70
2018-10-01T13:06:10.517Z,1.63
2018-10-01T13:09:13.618Z,1.50
2018-10-01T13:12:16.762Z,1.30
2018-10-01T13:15:19.943Z,1.40
2018-10-01T13:18:23.047Z,2.00
2018-10-01T13:21:26.199Z,1.43
2018-10-01T13:24:29.412Z,1.50
2018-10-01T13:27:32.470Z,1.30
2018-10-01T13:30:35.626Z,1.30
2018-10-01T13:33:38.743Z,1.30
2018-10-01T13:36:41.971Z,1.03
2018-10-01T13:39:45.158Z,1.47
2018-10-01T13:42:48.398Z,1.17
2018-10-01T13:45:51.492Z,1.23
2018-10-01T13:48:54.603Z,1.70
2018-10-01T13:51:57.730Z,1.17
2018-10-01T13:55:00.884Z,1.50
2018-10-01T13:58:04.033Z,1.23
2018-10-01T14:01:07.156Z,1.30
2018-10-01T14:04:10.249Z,1.17
2018-10-01T14:07:13.463Z,1.27
2018-10-01T14:10:16.494Z,1.30
2018-10-01T14:13:19.762Z,1.40
2018-10-01T14:16:22.788Z,1.30
2018-10-01T14:19:25.966Z,1.30
2018-10-01T14:22:29.075Z,1.40
2018-10-01T14:25:32.338Z,1.33
2018-10-01T14:28:35.584Z,1.30
2018-10-01T14:31:38.730Z,1.17
2018-10-01T14:34:41.822Z,1.27
2018-10-01T14:37:44.955Z,1.50
2018-10-01T14:40:48.054Z,1.40
2018-10-01T14:43:51.270Z,1.53
2018-10-01T14:46:54.353Z,1.53
2018-10-01T14:49:57.491Z,1.50
2018-10-01T14:53:00.591Z,1.50
2018-10-01T14:56:03.698Z,1.50
2018-10-01T14:59:06.819Z,1.40
2018-10-01T15:02:09.962Z,1.60
2018-10-01T15:05:13.210Z,1.50
2018-10-01T15:08:16.325Z,1.70
2018-10-01T15:11:19.461Z,1.87
2018-10-01T15:14:22.592Z,2.67
2018-10-01T15:17:25.702Z,2.93
2018-10-01T15:20:28.781Z,1.87
2018-10-01T15:23:31.923Z,1.80
2018-10-01T15:26:35.044Z,1.60
2018-10-01T15:29:38.173Z,1.90
2018-10-01T15:32:41.663Z,2.30
2018-10-01T15:35:44.774Z,1.90
2018-10-01T15:38:47.902Z,1.70
2018-10-01T15:41:51.031Z,1.97
2018-10-01T15:44:54.106Z,2.30
2018-10-01T15:47:57.198Z,2.60
2018-10-01T15:51:00.339Z,2.40
2018-10-01T15:54:03.426Z,2.10
2018-10-01T15:57:11.560Z,2.47
2018-10-01T16:00:14.743Z,1.77
2018-10-01T16:03:17.892Z,1.63
2018-10-01T16:06:20.914Z,2.30
2018-10-01T16:09:24.041Z,1.97
2018-10-01T16:12:27.193Z,1.70
2018-10-01T16:15:30.347Z,2.10
2018-10-01T16:18:33.479Z,2.00
2018-10-01T16:21:36.576Z,2.20
2018-10-01T16:24:39.754Z,1.90
2018-10-01T16:27:48.498Z,2.10
2018-10-01T16:30:51.590Z,2.10
2018-10-01T16:33:54.731Z,2.03
2018-10-01T16:36:57.870Z,2.00
2018-10-01T16:40:00.998Z,1.50
2018-10-01T16:43:04.151Z,1.70
2018-10-01T16:46:07.393Z,1.73
2018-10-01T16:49:15.736Z,1.30
2018-10-01T16:52:18.892Z,1.90
2018-10-01T16:55:21.990Z,2.20
2018-10-01T16:58:25.144Z,2.17
2018-10-01T17:01:28.250Z,1.60
2018-10-01T17:04:31.351Z,2.13
2018-10-01T17:07:34.701Z,3.17
2018-10-01T17:10:37.792Z,2.77
2018-10-01T17:13:40.946Z,3.50
2018-10-01T17:16:44.050Z,2.37
2018-10-01T17:19:47.152Z,2.97
2018-10-01T17:22:50.328Z,2.90
2018-10-01T17:25:53.443Z,2.13
2018-10-01T17:28:56.585Z,3.00
2018-10-01T17:31:59.744Z,1.90
2018-10-01T17:35:02.853Z,2.00
2018-10-01T17:38:06.122Z,2.73
2018-10-01T17:41:09.215Z,2.63
2018-10-01T17:44:12.358Z,2.80
2018-10-01T17:47:15.466Z,2.77
2018-10-01T17:50:18.672Z,2.40
2018-10-01T17:53:21.784Z,4.40
2018-10-01T17:56:24.913Z,2.50
2018-10-01T17:59:28.062Z,2.30
2018-10-01T18:02:31.250Z,2.13
2018-10-01T18:05:34.445Z,2.13
2018-10-01T18:08:37.567Z,5.67
2018-10-01T18:11:40.768Z,2.97
2018-10-01T18:14:43.883Z,6.37
2018-10-01T18:17:47.035Z,3.50
2018-10-01T18:20:50.114Z,3.20
2018-10-01T18:23:53.287Z,3.20
2018-10-01T18:26:56.354Z,4.97
2018-10-01T18:29:59.671Z,4.20
2018-10-01T18:33:03.220Z,2.80
2018-10-01T18:36:06.411Z,2.80
2018-10-01T18:39:17.382Z,2.60
2018-10-01T18:42:20.640Z,2.47
2018-10-01T18:45:23.714Z,2.30
2018-10-01T18:48:26.892Z,3.30
2018-10-01T18:51:30.014Z,2.90
2018-10-01T18:54:33.092Z,3.10
2018-10-01T18:57:36.277Z,2.93
2018-10-01T19:00:39.294Z,3.10
2018-10-01T19:03:42.423Z,3.40
2018-10-01T19:06:45.571Z,2.63
2018-10-01T19:09:48.714Z,2.90
2018-10-01T19:12:57.666Z,3.33
2018-10-01T19:16:00.798Z,2.97
2018-10-01T19:19:03.903Z,4.10
2018-10-01T19:22:07.062Z,3.23
2018-10-01T19:25:10.169Z,6.00
2018-10-01T19:28:13.310Z,3.53
2018-10-01T19:31:16.434Z,2.40
2018-10-01T19:34:19.554Z,3.27
2018-10-01T19:37:22.662Z,3.00
2018-10-01T19:40:26.014Z,3.73
2018-10-01T19:43:29.263Z,4.27
2018-10-01T19:46:32.342Z,2.83
2018-10-01T19:49:35.437Z,2.93
2018-10-01T19:52:38.554Z,2.60
2018-10-01T19:55:41.649Z,3.03
2018-10-01T19:58:51.624Z,2.87
2018-10-01T20:01:54.679Z,2.83
2018-10-01T20:04:57.856Z,2.83
2018-10-01T20:08:00.879Z,3.17
2018-10-01T20:11:04.033Z,3.30
2018-10-01T20:14:07.174Z,2.80
2018-10-01T20:17:10.307Z,2.73
2018-10-01T20:20:13.386Z,2.60
2018-10-01T20:23:16.501Z,3.00
2018-10-01T20:26:19.702Z,2.73
2018-10-01T20:29:23.134Z,2.93
2018-10-01T20:32:26.038Z,3.20
2018-10-01T20:35:29.215Z,3.90
2018-10-01T20:38:32.316Z,3.80
2018-10-01T20:41:35.451Z,4.00
2018-10-01T20:44:38.594Z,4.23
2018-10-01T20:47:41.724Z,4.97
2018-10-01T20:50:44.830Z,5.50
2018-10-01T20:53:48.041Z,5.60
2018-10-01T20:56:51.094Z,5.00
2018-10-01T20:59:54.271Z,6.50
2018-10-01T21:03:11.398Z,6.73
2018-10-01T21:06:14.510Z,5.60
2018-10-01T21:09:17.622Z,5.03
2018-10-01T21:12:20.759Z,5.40
2018-10-01T21:15:23.972Z,5.20
2018-10-01T21:18:27.141Z,5.67
2018-10-01T21:21:30.414Z,5.90
2018-10-01T21:24:33.555Z,5.57
2018-10-01T21:27:36.682Z,5.83
2018-10-01T21:30:39.859Z,6.07
2018-10-01T21:33:42.970Z,6.13
2018-10-01T21:36:46.086Z,6.00
2018-10-01T21:39:57.506Z,6.57
2018-10-01T21:43:00.601Z,5.70
2018-10-01T21:46:03.720Z,6.20
2018-10-01T21:49:06.847Z,7.00
2018-10-01T21:52:09.958Z,7.00
2018-10-01T21:55:13.083Z,6.77
2018-10-01T21:58:16.180Z,6.20
2018-10-01T22:01:24.863Z,6.23
2018-10-01T22:04:27.978Z,4.90
2018-10-01T22:07:31.103Z,5.00
2018-10-01T22:10:34.211Z,4.90
2018-10-01T22:13:37.335Z,4.93
2018-10-01T22:16:40.459Z,5.10
2018-10-01T22:19:43.638Z,4.80
2018-10-01T22:22:46.739Z,5.17
2018-10-01T22:25:49.918Z,4.80
2018-10-01T22:28:53.070Z,4.87
2018-10-01T22:31:56.161Z,4.87
2018-10-01T22:34:59.265Z,4.90
2018-10-01T22:38:02.350Z,5.47
2018-10-01T22:41:05.462Z,5.40
2018-10-01T22:44:08.689Z,5.97
2018-10-01T22:47:12.246Z,5.33
2018-10-01T22:50:21.842Z,6.47
2018-10-01T22:53:24.987Z,5.93
2018-10-01T22:56:28.243Z,6.80
2018-10-01T22:59:31.358Z,6.40
2018-10-01T23:02:34.466Z,6.77
2018-10-01T23:05:37.569Z,6.30
2018-10-01T23:08:40.678Z,7.03
2018-10-01T23:11:43.802Z,7.20
2018-10-01T23:14:46.921Z,6.43
2018-10-01T23:17:50.038Z,6.23
2018-10-01T23:20:53.135Z,6.47
2018-10-01T23:23:56.233Z,6.00
2018-10-01T23:26:59.322Z,6.10
2018-10-01T23:30:02.443Z,5.50
2018-10-01T23:33:05.698Z,6.10
2018-10-01T23:36:08.813Z,5.90
2018-10-01T23:39:11.915Z,5.50
2018-10-01T23:42:15.044Z,6.03
2018-10-01T23:45:18.139Z,5.23
2018-10-01T23:48:21.250Z,5.83
2018-10-01T23:51:24.341Z,6.23
2018-10-01T23:54:27.469Z,5.43
2018-10-01T23:57:30.542Z,5.77
